Главная страница
METAR-TAF:

METAR-TAF

Аэропорты :

Фьюмичино

Рим-Фьюмичино, Италия

широта: 41-48N, долгота: 012-14E, высота над уровнем моря: 2 м

Текущие метеонаблюдения

Эта сводка был подготовлена 34 минут назад, в 16:20 UTC
Ветер 3 Узел от юго-юго-восточный
Температура 12°C
Влажность 67%
Давление 1024 hPa
Видимость 10 км и более
Отдельные облака на высоте 4000 фута

METAR: LIRF 191620Z 16003KT 9999 SCT040 12/06 Q1024 NOSIG

Время: 17:54 (16:54 UTC)

Прогноз

Эта сводка был подготовлена 5 часа и 54 минут назад, в 11:00 UTC
Прогноз действительный с 19-го 12 UTC до 20-го 18 UTC
Ветер 8 Узел от юго-восточный
Видимость 10 км и более
Нет облачности ниже 1500 м, и нет кучево-дождевой облачности
изменения
С 19-го 17 UTC до 19-го 19 UTC
Ветер 10 Узел от восточно-северо-восточный

TAF: LIRF 191100Z 1912/2018 13008KT CAVOK BECMG 1917/1919 06010KT

Метеонаблюдения и прогнозы для более 4000 аэропортов (сводки METAR и TAF).

Имеющиеся станции представлены на карте желтыми и красными точками.

Чтобы увидеть название станции, наведите на нее мышь.

Затем щелкните, чтобы увидеть метеонаблюдения и метеопрогнозы.

Управление картой: чтобы увеличить масштаб, щелкните зеленые кнопки с черным крестиком; чтобы уменьшить масштаб, щелкните зеленую кнопку с тире; для просмотра соседних карт щелкайте зеленые стрелки.


METAR-TAF: